Time;durP1;ratioP1;P1;durP2;ratioP2;P2;SDS_P1;SDS_P2;PMS_P1;PMS_P2;Temp;Humidity;BMP_temperature;BMP_pressure;BME280_temperature;BME280_humidity;BME280_pressure;Samples;Min_cycle;Max_cycle;Signal;HPM_P1;HPM_P2
2022/01/31 00:01:57;;;;;;;17.73;3.47;;;;;;;;;;5038620;28;20646;-68
2022/01/31 00:04:22;;;;;;;14.53;3.10;;;;;;;;;;5044468;28;20173;-67
2022/01/31 00:06:48;;;;;;;16.13;4.37;;;;;;;;;;5043303;28;20206;-68
2022/01/31 00:09:17;;;;;;;14.97;3.73;;;;;;;;;;5047009;28;20587;-68
2022/01/31 00:11:52;;;;;;;23.23;4.47;;;;;;;;;;5041990;28;20200;-68
2022/01/31 00:14:26;;;;;;;13.50;3.90;;;;;;;;;;5052633;28;20193;-68
2022/01/31 00:16:51;;;;;;;15.67;4.23;;;;;;;;;;5044880;28;20181;-68
2022/01/31 00:19:17;;;;;;;15.17;4.83;;;;;;;;;;5048348;28;20695;-68
2022/01/31 00:21:42;;;;;;;19.33;3.87;;;;;;;;;;5042282;28;20188;-68
2022/01/31 00:24:08;;;;;;;14.53;4.17;;;;;;;;;;5045010;28;20174;-68
2022/01/31 00:26:33;;;;;;;10.77;3.13;;;;;;;;;;5041291;28;20876;-68
2022/01/31 00:28:59;;;;;;;22.13;3.80;;;;;;;;;;5045521;28;20200;-68
2022/01/31 00:31:24;;;;;;;16.83;4.30;;;;;;;;;;5043150;28;20209;-68
2022/01/31 00:33:51;;;;;;;16.57;4.80;;;;;;;;;;5045357;28;20520;-69
2022/01/31 00:36:17;;;;;;;12.97;4.00;;;;;;;;;;5038269;28;21296;-68
2022/01/31 00:38:42;;;;;;;15.73;4.00;;;;;;;;;;5046162;28;20266;-68
2022/01/31 00:41:08;;;;;;;19.83;4.53;;;;;;;;;;5042091;28;20699;-68
2022/01/31 00:43:36;;;;;;;15.70;4.40;;;;;;;;;;5043314;28;20512;-68
2022/01/31 00:46:09;;;;;;;18.73;4.70;;;;;;;;;;5044906;28;20882;-68
2022/01/31 00:48:40;;;;;;;18.13;4.80;;;;;;;;;;5042522;28;20277;-69
2022/01/31 00:51:06;;;;;;;15.70;4.40;;;;;;;;;;5044431;28;20217;-68
2022/01/31 00:53:31;;;;;;;13.20;4.20;;;;;;;;;;5040538;28;20673;-68
2022/01/31 00:55:56;;;;;;;9.70;3.87;;;;;;;;;;5040482;28;20204;-68
2022/01/31 00:58:24;;;;;;;16.13;4.87;;;;;;;;;;5041768;28;20252;-68
2022/01/31 01:00:49;;;;;;;19.63;4.57;;;;;;;;;;5044896;28;20182;-67
2022/01/31 01:03:15;;;;;;;18.93;5.03;;;;;;;;;;5039542;28;20189;-68
2022/01/31 01:05:40;;;;;;;15.37;4.67;;;;;;;;;;5042895;28;20195;-68
2022/01/31 01:08:06;;;;;;;19.37;4.43;;;;;;;;;;5043412;28;20689;-69
2022/01/31 01:10:32;;;;;;;12.80;4.53;;;;;;;;;;5039867;28;20649;-67
2022/01/31 01:12:57;;;;;;;16.70;4.93;;;;;;;;;;5044218;28;20182;-67
2022/01/31 01:15:22;;;;;;;17.13;4.80;;;;;;;;;;5048593;28;20196;-68
2022/01/31 01:17:48;;;;;;;13.93;4.40;;;;;;;;;;5045314;28;20202;-68
2022/01/31 01:20:15;;;;;;;13.70;4.63;;;;;;;;;;5045376;28;20243;-68
2022/01/31 01:22:41;;;;;;;21.50;5.20;;;;;;;;;;5041291;28;20239;-68
2022/01/31 01:25:07;;;;;;;19.43;5.17;;;;;;;;;;5044049;28;20198;-68
2022/01/31 01:27:33;;;;;;;19.27;4.90;;;;;;;;;;5040318;28;20181;-68
2022/01/31 01:29:58;;;;;;;20.37;5.27;;;;;;;;;;5044522;28;20177;-67
2022/01/31 01:32:26;;;;;;;16.33;4.90;;;;;;;;;;5044794;28;20618;-68
2022/01/31 01:34:53;;;;;;;22.40;5.30;;;;;;;;;;5046234;28;20581;-68
2022/01/31 01:37:18;;;;;;;19.60;6.03;;;;;;;;;;5037413;28;20181;-68
2022/01/31 01:39:45;;;;;;;22.63;6.17;;;;;;;;;;5043897;28;20221;-67
2022/01/31 01:42:11;;;;;;;18.57;5.87;;;;;;;;;;5043221;28;20220;-67
2022/01/31 01:44:48;;;;;;;15.57;5.87;;;;;;;;;;5041060;28;20217;-67
2022/01/31 01:47:16;;;;;;;17.47;6.67;;;;;;;;;;5042407;28;20289;-68
2022/01/31 01:49:42;;;;;;;30.23;6.73;;;;;;;;;;5043685;28;20195;-67
2022/01/31 01:52:07;;;;;;;24.60;6.73;;;;;;;;;;5043520;28;20189;-68
2022/01/31 01:54:33;;;;;;;21.00;6.33;;;;;;;;;;5044447;28;20197;-67
2022/01/31 01:56:59;;;;;;;21.20;6.87;;;;;;;;;;5040743;28;20235;-73
2022/01/31 01:59:25;;;;;;;23.23;7.13;;;;;;;;;;5037443;28;20726;-72
2022/01/31 02:01:50;;;;;;;21.37;6.53;;;;;;;;;;5044061;28;20276;-71
2022/01/31 02:04:16;;;;;;;22.80;6.63;;;;;;;;;;5041676;28;20229;-72
2022/01/31 02:06:42;;;;;;;25.50;7.03;;;;;;;;;;5041952;28;20272;-72
2022/01/31 02:09:08;;;;;;;21.77;7.37;;;;;;;;;;5045466;28;20190;-73
2022/01/31 02:11:33;;;;;;;20.80;6.70;;;;;;;;;;5039784;28;20201;-73
2022/01/31 02:13:58;;;;;;;26.20;7.67;;;;;;;;;;5041915;28;20637;-74
2022/01/31 02:16:24;;;;;;;21.23;7.20;;;;;;;;;;5043384;28;20320;-74
2022/01/31 02:18:52;;;;;;;14.87;6.73;;;;;;;;;;5045846;28;20281;-75
2022/01/31 02:21:17;;;;;;;13.27;7.17;;;;;;;;;;5038447;28;20316;-74
2022/01/31 02:23:43;;;;;;;12.70;6.37;;;;;;;;;;5038826;28;20366;-74
2022/01/31 02:26:09;;;;;;;14.53;6.70;;;;;;;;;;5043078;28;20226;-73
2022/01/31 02:28:36;;;;;;;17.63;6.87;;;;;;;;;;5050709;28;20189;-74
2022/01/31 02:31:03;;;;;;;14.50;7.20;;;;;;;;;;5038509;28;20205;-74
2022/01/31 02:33:29;;;;;;;14.83;6.80;;;;;;;;;;5037454;28;20190;-74
2022/01/31 02:35:57;;;;;;;17.63;7.40;;;;;;;;;;5041586;28;20182;-76
2022/01/31 02:38:23;;;;;;;16.80;6.47;;;;;;;;;;5043444;28;20300;-74
2022/01/31 02:40:50;;;;;;;20.07;7.60;;;;;;;;;;5043412;28;20275;-74
2022/01/31 02:43:23;;;;;;;15.17;6.40;;;;;;;;;;5039505;28;20531;-74
2022/01/31 02:45:49;;;;;;;15.17;6.57;;;;;;;;;;5041064;28;20189;-73
2022/01/31 02:48:17;;;;;;;9.93;5.57;;;;;;;;;;5045591;28;20212;-75
2022/01/31 02:50:42;;;;;;;12.40;5.70;;;;;;;;;;5039957;28;20220;-74
2022/01/31 02:53:22;;;;;;;8.83;5.87;;;;;;;;;;5044609;28;20189;-73
2022/01/31 02:55:48;;;;;;;9.60;5.67;;;;;;;;;;5043640;28;20204;-72
2022/01/31 02:58:15;;;;;;;9.60;5.70;;;;;;;;;;5042463;28;20499;-73
2022/01/31 03:00:41;;;;;;;11.67;5.40;;;;;;;;;;5039515;28;20609;-73
2022/01/31 03:03:07;;;;;;;12.67;6.33;;;;;;;;;;5043728;28;20220;-73
2022/01/31 03:05:32;;;;;;;11.87;5.53;;;;;;;;;;5042587;28;20209;-72
2022/01/31 03:07:58;;;;;;;11.80;5.83;;;;;;;;;;5039626;28;20245;-71
2022/01/31 03:10:23;;;;;;;8.97;5.57;;;;;;;;;;5045797;28;20212;-72
2022/01/31 03:12:49;;;;;;;11.57;5.67;;;;;;;;;;5047389;28;20728;-73
2022/01/31 03:15:14;;;;;;;10.80;5.90;;;;;;;;;;5045227;28;20256;-72
2022/01/31 03:17:42;;;;;;;11.77;5.33;;;;;;;;;;5047417;28;20189;-71
2022/01/31 03:20:09;;;;;;;11.03;5.70;;;;;;;;;;5040649;28;20285;-71
2022/01/31 03:22:34;;;;;;;10.60;5.93;;;;;;;;;;5042383;28;20184;-73
2022/01/31 03:24:59;;;;;;;8.60;5.57;;;;;;;;;;5044325;28;20268;-73
2022/01/31 03:27:25;;;;;;;9.67;6.30;;;;;;;;;;5053325;28;20443;-72
2022/01/31 03:29:50;;;;;;;13.00;5.53;;;;;;;;;;5043048;28;20186;-71
2022/01/31 03:32:15;;;;;;;13.40;6.40;;;;;;;;;;5044900;28;20178;-72
2022/01/31 03:34:41;;;;;;;13.93;6.17;;;;;;;;;;5044173;28;20217;-71
2022/01/31 03:37:06;;;;;;;12.07;6.03;;;;;;;;;;5047878;28;20185;-71
2022/01/31 03:39:32;;;;;;;12.57;6.43;;;;;;;;;;5044118;28;20210;-70
2022/01/31 03:41:57;;;;;;;11.13;6.70;;;;;;;;;;5043812;28;20661;-70
2022/01/31 03:44:22;;;;;;;14.90;7.63;;;;;;;;;;5046672;28;20185;-71
2022/01/31 03:46:48;;;;;;;15.73;7.17;;;;;;;;;;5047218;28;20228;-70
2022/01/31 03:49:13;;;;;;;13.27;7.10;;;;;;;;;;5044189;28;20185;-71
2022/01/31 03:51:38;;;;;;;14.67;8.10;;;;;;;;;;5045064;28;20185;-70
2022/01/31 03:54:04;;;;;;;14.47;7.00;;;;;;;;;;5045486;28;20235;-71
2022/01/31 03:56:29;;;;;;;13.50;7.23;;;;;;;;;;5042049;28;20682;-71
2022/01/31 03:58:55;;;;;;;14.07;7.93;;;;;;;;;;5045909;28;20251;-71
2022/01/31 04:01:22;;;;;;;17.00;8.00;;;;;;;;;;5038785;28;20273;-70
2022/01/31 04:03:48;;;;;;;18.73;8.47;;;;;;;;;;5044283;28;20181;-71
2022/01/31 04:06:13;;;;;;;15.30;6.93;;;;;;;;;;5044598;28;20192;-70
2022/01/31 04:08:38;;;;;;;12.07;6.70;;;;;;;;;;5048122;28;20189;-68
2022/01/31 04:11:04;;;;;;;15.73;6.53;;;;;;;;;;5044263;28;20177;-68
2022/01/31 04:13:29;;;;;;;16.63;5.97;;;;;;;;;;5045143;28;20188;-68
2022/01/31 04:15:54;;;;;;;17.07;5.40;;;;;;;;;;5044888;28;20178;-68
2022/01/31 04:18:20;;;;;;;16.17;5.00;;;;;;;;;;5044780;28;20201;-68
2022/01/31 04:20:45;;;;;;;13.20;4.37;;;;;;;;;;5046762;28;20219;-68
2022/01/31 04:23:15;;;;;;;16.00;4.37;;;;;;;;;;5046105;28;20193;-68
2022/01/31 04:28:24;;;;;;;10.93;2.60;;;;;;;;;;5042208;28;20652;-69
2022/01/31 04:33:39;;;;;;;9.67;1.60;;;;;;;;;;5034372;28;20208;-70
2022/01/31 04:36:05;;;;;;;5.67;1.17;;;;;;;;;;5044826;28;20192;-70
2022/01/31 04:38:30;;;;;;;5.67;1.27;;;;;;;;;;5042711;28;20664;-72
2022/01/31 04:40:56;;;;;;;2.40;1.07;;;;;;;;;;5044485;28;20535;-71
2022/01/31 04:43:21;;;;;;;8.07;1.30;;;;;;;;;;5038679;28;20676;-71
2022/01/31 04:45:48;;;;;;;7.80;1.63;;;;;;;;;;5042844;28;20197;-72
2022/01/31 04:48:19;;;;;;;8.03;1.73;;;;;;;;;;5047210;28;20281;-71
2022/01/31 04:50:45;;;;;;;13.13;1.87;;;;;;;;;;5042171;28;20216;-70
2022/01/31 04:53:12;;;;;;;11.07;1.63;;;;;;;;;;5048372;28;20203;-72
2022/01/31 04:55:39;;;;;;;8.40;1.50;;;;;;;;;;5041958;28;20550;-70
2022/01/31 04:58:05;;;;;;;8.20;1.20;;;;;;;;;;5046072;28;20719;-71
2022/01/31 05:00:30;;;;;;;4.80;0.70;;;;;;;;;;5042917;28;20656;-72
2022/01/31 05:02:56;;;;;;;8.97;1.07;;;;;;;;;;5046187;28;20181;-73
2022/01/31 05:05:21;;;;;;;4.97;0.97;;;;;;;;;;5044201;28;20213;-72
2022/01/31 05:07:48;;;;;;;10.27;1.13;;;;;;;;;;5034201;28;20185;-73
2022/01/31 05:10:13;;;;;;;12.13;1.10;;;;;;;;;;5042675;28;20228;-71
2022/01/31 05:12:40;;;;;;;6.00;0.67;;;;;;;;;;5043668;28;20220;-72
2022/01/31 05:15:06;;;;;;;7.73;0.90;;;;;;;;;;5040197;28;20209;-72
2022/01/31 05:17:31;;;;;;;10.53;1.20;;;;;;;;;;5041575;28;20217;-70
2022/01/31 05:19:56;;;;;;;9.73;1.50;;;;;;;;;;5041705;28;20766;-71
2022/01/31 05:22:22;;;;;;;12.07;1.20;;;;;;;;;;5041167;28;20598;-71
2022/01/31 05:24:47;;;;;;;8.87;1.43;;;;;;;;;;5050584;28;20259;-70
2022/01/31 05:27:13;;;;;;;7.63;1.60;;;;;;;;;;5048770;28;20223;-69
2022/01/31 05:29:38;;;;;;;13.43;2.30;;;;;;;;;;5041316;28;20231;-70
2022/01/31 05:32:04;;;;;;;15.65;2.15;;;;;;;;;;5040766;28;20485;-69
2022/01/31 05:34:30;;;;;;;21.13;2.20;;;;;;;;;;5041717;28;20642;-70
2022/01/31 05:36:56;;;;;;;16.37;2.20;;;;;;;;;;5041777;28;20204;-70
2022/01/31 05:39:25;;;;;;;17.40;2.20;;;;;;;;;;5049719;28;20228;-70
2022/01/31 05:41:55;;;;;;;11.57;1.53;;;;;;;;;;5045509;28;20225;-69
2022/01/31 05:44:22;;;;;;;14.80;2.50;;;;;;;;;;5053618;28;20548;-69
2022/01/31 05:46:47;;;;;;;17.90;2.60;;;;;;;;;;5041479;28;20182;-69
2022/01/31 05:49:12;;;;;;;21.77;2.70;;;;;;;;;;5039470;28;20563;-71
2022/01/31 05:51:54;;;;;;;15.60;2.30;;;;;;;;;;5035146;28;20248;-73
2022/01/31 05:54:23;;;;;;;8.60;1.53;;;;;;;;;;5042933;28;20196;-75
2022/01/31 05:56:49;;;;;;;14.67;1.90;;;;;;;;;;5050373;28;20267;-73
2022/01/31 05:59:15;;;;;;;12.23;1.43;;;;;;;;;;5047363;28;20370;-75
2022/01/31 06:01:40;;;;;;;10.80;1.47;;;;;;;;;;5044316;28;20256;-74
2022/01/31 06:04:06;;;;;;;7.20;1.57;;;;;;;;;;5035535;28;20597;-73
2022/01/31 06:06:31;;;;;;;4.50;1.30;;;;;;;;;;5046308;28;20350;-74
2022/01/31 06:08:57;;;;;;;14.60;1.80;;;;;;;;;;5041149;28;20454;-73
2022/01/31 06:11:22;;;;;;;11.93;1.40;;;;;;;;;;5039957;28;20192;-74
2022/01/31 06:13:48;;;;;;;9.77;1.37;;;;;;;;;;5041949;28;20280;-72
2022/01/31 06:16:13;;;;;;;7.20;1.13;;;;;;;;;;5047986;28;20285;-73
2022/01/31 06:18:38;;;;;;;15.87;1.73;;;;;;;;;;5042843;28;20275;-73
2022/01/31 06:21:04;;;;;;;10.13;1.50;;;;;;;;;;5049308;28;20193;-75
2022/01/31 06:23:29;;;;;;;11.90;1.53;;;;;;;;;;5043422;28;20708;-71
2022/01/31 06:25:55;;;;;;;9.93;1.10;;;;;;;;;;5047435;28;20208;-72
2022/01/31 06:28:21;;;;;;;10.47;1.30;;;;;;;;;;5043411;28;20185;-71
2022/01/31 06:30:46;;;;;;;10.80;1.53;;;;;;;;;;5043127;28;20634;-70
2022/01/31 06:33:16;;;;;;;8.73;1.27;;;;;;;;;;5040329;28;20189;-70
2022/01/31 06:35:42;;;;;;;5.10;1.63;;;;;;;;;;5045392;28;20620;-71
2022/01/31 06:38:08;;;;;;;11.50;1.30;;;;;;;;;;5046201;28;20186;-72
2022/01/31 06:40:33;;;;;;;13.07;1.70;;;;;;;;;;5043280;28;20280;-69
2022/01/31 06:42:58;;;;;;;14.80;1.77;;;;;;;;;;5042402;28;20192;-68
2022/01/31 06:45:23;;;;;;;12.70;1.83;;;;;;;;;;5049492;28;20204;-69
2022/01/31 06:47:49;;;;;;;12.63;2.10;;;;;;;;;;5043062;28;20673;-68
2022/01/31 06:50:14;;;;;;;14.43;1.87;;;;;;;;;;5047720;28;20564;-69
2022/01/31 06:52:41;;;;;;;17.10;1.80;;;;;;;;;;5051797;28;20541;-69
2022/01/31 06:55:07;;;;;;;17.40;2.00;;;;;;;;;;5044261;28;20190;-71
2022/01/31 06:57:34;;;;;;;9.47;1.27;;;;;;;;;;5044413;28;20182;-71
2022/01/31 07:00:03;;;;;;;10.37;1.20;;;;;;;;;;5043724;28;20694;-72
2022/01/31 07:02:28;;;;;;;11.13;1.53;;;;;;;;;;5044091;28;20267;-73
2022/01/31 07:04:54;;;;;;;15.67;1.87;;;;;;;;;;5043262;28;20247;-74
2022/01/31 07:07:19;;;;;;;12.30;1.17;;;;;;;;;;5050712;28;20201;-73
2022/01/31 07:09:44;;;;;;;9.07;1.10;;;;;;;;;;5045565;28;20936;-72
2022/01/31 07:12:12;;;;;;;11.77;1.27;;;;;;;;;;5055278;28;20193;-74
2022/01/31 07:14:37;;;;;;;14.53;2.07;;;;;;;;;;5044333;28;20213;-73
2022/01/31 07:17:05;;;;;;;11.13;1.57;;;;;;;;;;5046707;28;20301;-76
2022/01/31 07:19:33;;;;;;;5.90;1.00;;;;;;;;;;5041552;28;20673;-74
2022/01/31 07:21:59;;;;;;;10.43;1.13;;;;;;;;;;5049432;28;20189;-76
2022/01/31 07:24:42;;;;;;;9.97;1.73;;;;;;;;;;5046049;28;20265;-75
2022/01/31 07:27:07;;;;;;;4.63;0.77;;;;;;;;;;5045034;28;20272;-73
2022/01/31 07:29:33;;;;;;;8.40;1.13;;;;;;;;;;5047857;28;20264;-73
2022/01/31 07:32:00;;;;;;;8.03;1.23;;;;;;;;;;5044446;28;20220;-75
2022/01/31 07:34:25;;;;;;;11.87;1.37;;;;;;;;;;5042885;28;20265;-71
2022/01/31 07:36:52;;;;;;;8.23;1.00;;;;;;;;;;5047843;28;20223;-73
2022/01/31 07:39:19;;;;;;;10.57;1.70;;;;;;;;;;5046005;28;20819;-73
2022/01/31 07:41:46;;;;;;;13.10;1.73;;;;;;;;;;5042224;28;20217;-72
2022/01/31 07:44:11;;;;;;;11.83;1.63;;;;;;;;;;5044880;28;20238;-73
2022/01/31 07:46:37;;;;;;;9.63;1.30;;;;;;;;;;5047637;28;20189;-73
2022/01/31 07:49:04;;;;;;;10.53;1.00;;;;;;;;;;5057553;28;20189;-72
2022/01/31 07:51:29;;;;;;;9.17;1.23;;;;;;;;;;5045607;28;20197;-73
2022/01/31 07:53:54;;;;;;;11.60;1.53;;;;;;;;;;5042803;28;20197;-76
2022/01/31 07:56:20;;;;;;;8.50;0.97;;;;;;;;;;5041146;28;20617;-72
2022/01/31 07:58:46;;;;;;;8.27;1.00;;;;;;;;;;5044535;28;20701;-74
2022/01/31 08:01:11;;;;;;;10.93;1.17;;;;;;;;;;5045811;28;20677;-73
2022/01/31 08:03:37;;;;;;;5.33;0.73;;;;;;;;;;5047284;28;20239;-72
2022/01/31 08:06:03;;;;;;;8.70;1.47;;;;;;;;;;5046499;28;20185;-73
2022/01/31 08:08:29;;;;;;;8.40;1.10;;;;;;;;;;5045291;28;20197;-74
2022/01/31 08:10:56;;;;;;;3.70;0.90;;;;;;;;;;5047329;28;20625;-73
2022/01/31 08:13:24;;;;;;;9.43;1.20;;;;;;;;;;5041802;28;20242;-73
2022/01/31 08:16:02;;;;;;;6.60;1.00;;;;;;;;;;5045180;28;20196;-72
2022/01/31 08:18:29;;;;;;;8.27;0.80;;;;;;;;;;5045150;28;20244;-71
2022/01/31 08:20:54;;;;;;;11.10;1.07;;;;;;;;;;5038912;28;20188;-71
2022/01/31 08:23:20;;;;;;;8.33;0.97;;;;;;;;;;5042664;28;20185;-69
2022/01/31 08:25:49;;;;;;;7.97;0.80;;;;;;;;;;5049065;28;20185;-69
2022/01/31 08:28:21;;;;;;;8.53;1.33;;;;;;;;;;5046185;28;20208;-71
2022/01/31 08:30:56;;;;;;;10.90;0.90;;;;;;;;;;5047747;28;20217;-71
2022/01/31 08:33:47;;;;;;;8.70;1.47;;;;;;;;;;5042737;28;20219;-69
2022/01/31 08:36:13;;;;;;;4.20;0.70;;;;;;;;;;5045774;28;20190;-70
2022/01/31 08:38:41;;;;;;;9.60;1.03;;;;;;;;;;5043834;28;20302;-70
2022/01/31 08:41:08;;;;;;;7.97;0.80;;;;;;;;;;5044938;28;20223;-70
2022/01/31 08:43:34;;;;;;;4.60;0.60;;;;;;;;;;5040303;28;20250;-70
2022/01/31 08:46:00;;;;;;;5.70;0.90;;;;;;;;;;5044455;28;20268;-70
2022/01/31 08:48:27;;;;;;;9.57;0.83;;;;;;;;;;5041989;28;20264;-70
2022/01/31 08:50:53;;;;;;;9.97;1.00;;;;;;;;;;5040935;28;20748;-71
2022/01/31 08:53:19;;;;;;;5.53;1.10;;;;;;;;;;5046490;28;20499;-71
2022/01/31 08:55:50;;;;;;;10.23;1.47;;;;;;;;;;5043628;28;20193;-71
2022/01/31 08:58:16;;;;;;;6.83;1.13;;;;;;;;;;5046181;28;20244;-72
2022/01/31 09:00:42;;;;;;;11.17;0.80;;;;;;;;;;5043712;28;20211;-72
2022/01/31 09:05:37;;;;;;;9.10;1.20;;;;;;;;;;5045770;28;20276;-72
2022/01/31 09:08:02;;;;;;;10.97;1.33;;;;;;;;;;5056778;28;20276;-73
2022/01/31 09:10:27;;;;;;;19.83;2.13;;;;;;;;;;5044502;28;20616;-71
2022/01/31 09:12:53;;;;;;;9.40;2.43;;;;;;;;;;5038917;28;20185;-71
2022/01/31 09:15:18;;;;;;;12.43;2.43;;;;;;;;;;5043920;28;20559;-70
2022/01/31 09:17:44;;;;;;;15.70;1.50;;;;;;;;;;5047887;28;20181;-70
2022/01/31 09:20:09;;;;;;;19.97;2.93;;;;;;;;;;5045555;28;20197;-70
2022/01/31 09:22:35;;;;;;;16.97;2.23;;;;;;;;;;5053202;28;20566;-69
2022/01/31 09:25:00;;;;;;;18.33;2.90;;;;;;;;;;5046346;28;20193;-69
2022/01/31 09:27:27;;;;;;;13.83;1.80;;;;;;;;;;5054095;28;20488;-70
2022/01/31 09:29:53;;;;;;;17.03;2.87;;;;;;;;;;5044021;28;20632;-70
2022/01/31 09:32:22;;;;;;;17.83;3.20;;;;;;;;;;5044091;28;20186;-68
2022/01/31 09:34:49;;;;;;;16.93;2.50;;;;;;;;;;5045303;28;20189;-69
2022/01/31 09:37:14;;;;;;;13.97;2.67;;;;;;;;;;5044015;28;20189;-69
2022/01/31 09:39:42;;;;;;;17.07;2.27;;;;;;;;;;5043692;28;20205;-69
2022/01/31 09:42:13;;;;;;;15.20;1.93;;;;;;;;;;5043245;28;20185;-68
2022/01/31 09:44:48;;;;;;;17.63;2.53;;;;;;;;;;5045824;28;20538;-69
2022/01/31 09:47:33;;;;;;;20.83;2.37;;;;;;;;;;5041231;28;20215;-68
2022/01/31 09:49:59;;;;;;;20.83;1.93;;;;;;;;;;5047058;28;20178;-68
2022/01/31 09:52:24;;;;;;;13.47;1.83;;;;;;;;;;5043243;28;20204;-68
2022/01/31 09:54:49;;;;;;;19.53;1.43;;;;;;;;;;5047929;28;20622;-68
2022/01/31 09:57:17;;;;;;;14.60;1.43;;;;;;;;;;5044590;28;20701;-69
2022/01/31 09:59:42;;;;;;;13.90;1.87;;;;;;;;;;5044248;28;20268;-69
2022/01/31 10:02:10;;;;;;;12.03;1.30;;;;;;;;;;5045817;28;20181;-69
2022/01/31 10:04:36;;;;;;;9.37;1.20;;;;;;;;;;5045827;28;20189;-70
2022/01/31 10:07:03;;;;;;;10.80;1.10;;;;;;;;;;5041478;28;20552;-70
2022/01/31 10:09:30;;;;;;;10.63;1.53;;;;;;;;;;5039672;28;20195;-70
2022/01/31 10:12:09;;;;;;;7.57;1.20;;;;;;;;;;5056442;28;20213;-71
2022/01/31 10:17:27;;;;;;;13.10;1.40;;;;;;;;;;5051577;28;20679;-68
2022/01/31 10:19:55;;;;;;;9.93;1.30;;;;;;;;;;5044384;28;20214;-68
2022/01/31 10:22:23;;;;;;;10.17;1.40;;;;;;;;;;5047571;28;20984;-68
2022/01/31 10:24:51;;;;;;;8.10;1.37;;;;;;;;;;5046360;28;20178;-68
2022/01/31 10:27:22;;;;;;;7.37;1.30;;;;;;;;;;5053279;28;20200;-69
2022/01/31 10:29:50;;;;;;;7.97;1.00;;;;;;;;;;5045136;28;20656;-69
2022/01/31 10:32:34;;;;;;;8.90;1.70;;;;;;;;;;5046213;28;20308;-68
2022/01/31 10:35:03;;;;;;;11.03;1.10;;;;;;;;;;5048636;28;20177;-68
2022/01/31 10:37:30;;;;;;;6.33;1.00;;;;;;;;;;5046315;28;20322;-68
2022/01/31 10:45:48;;;;;;;8.93;1.03;;;;;;;;;;5048565;28;20346;-68
2022/01/31 10:54:15;;;;;;;10.47;1.50;;;;;;;;;;5045662;28;20285;-68
2022/01/31 10:56:52;;;;;;;5.87;0.63;;;;;;;;;;5046575;28;20193;-68
2022/01/31 10:59:20;;;;;;;7.20;1.10;;;;;;;;;;5047976;28;20235;-68
2022/01/31 11:01:49;;;;;;;6.53;1.53;;;;;;;;;;5042689;28;20193;-68
2022/01/31 11:04:15;;;;;;;9.75;1.45;;;;;;;;;;5044121;28;20212;-67
2022/01/31 11:06:43;;;;;;;12.23;2.50;;;;;;;;;;5038897;28;20657;-68
2022/01/31 11:09:14;;;;;;;9.55;1.25;;;;;;;;;;5046737;28;20212;-67
2022/01/31 11:11:42;;;;;;;9.97;1.70;;;;;;;;;;5046810;28;20189;-67
2022/01/31 11:14:09;;;;;;;9.47;1.50;;;;;;;;;;5048358;28;20251;-67
2022/01/31 11:16:36;;;;;;;9.90;1.70;;;;;;;;;;5053612;28;20476;-67
2022/01/31 11:19:07;;;;;;;9.27;1.47;;;;;;;;;;5048078;28;20323;-67
2022/01/31 11:21:36;;;;;;;10.77;1.50;;;;;;;;;;5054367;28;20372;-67
2022/01/31 11:24:04;;;;;;;8.50;1.40;;;;;;;;;;5044974;28;20284;-68
2022/01/31 11:26:40;;;;;;;10.40;1.90;;;;;;;;;;5045933;28;20619;-68
2022/01/31 11:29:07;;;;;;;11.60;1.83;;;;;;;;;;5045268;28;20181;-67
2022/01/31 11:31:36;;;;;;;13.90;1.70;;;;;;;;;;5051995;28;20217;-68
2022/01/31 11:34:03;;;;;;;11.97;1.77;;;;;;;;;;5055669;28;20231;-67
2022/01/31 11:36:29;;;;;;;5.63;1.80;;;;;;;;;;5048768;28;20224;-67
2022/01/31 11:38:55;;;;;;;7.87;1.07;;;;;;;;;;5047697;28;20232;-67
2022/01/31 11:41:21;;;;;;;7.73;1.00;;;;;;;;;;5052214;28;20592;-67
2022/01/31 11:43:55;;;;;;;8.93;1.10;;;;;;;;;;5047433;28;20209;-68
2022/01/31 11:46:24;;;;;;;6.67;0.80;;;;;;;;;;5051180;28;20586;-67
2022/01/31 11:48:52;;;;;;;8.33;1.10;;;;;;;;;;5044170;28;20260;-67
2022/01/31 11:51:18;;;;;;;13.97;1.33;;;;;;;;;;5048947;28;20229;-66
2022/01/31 11:53:44;;;;;;;5.40;0.83;;;;;;;;;;5050959;28;20264;-67
2022/01/31 11:56:22;;;;;;;6.40;0.57;;;;;;;;;;5043943;28;20272;-67
2022/01/31 11:58:52;;;;;;;5.80;1.00;;;;;;;;;;5051214;28;20772;-67
2022/01/31 12:01:19;;;;;;;7.77;0.70;;;;;;;;;;5047765;28;20190;-68
2022/01/31 12:03:59;;;;;;;8.73;0.80;;;;;;;;;;5052657;28;20220;-67
2022/01/31 12:06:28;;;;;;;7.37;1.13;;;;;;;;;;5052381;28;20248;-68
2022/01/31 12:09:06;;;;;;;4.47;0.70;;;;;;;;;;5054795;28;20645;-66
2022/01/31 12:11:52;;;;;;;8.17;1.00;;;;;;;;;;5048472;28;20173;-67
2022/01/31 12:14:26;;;;;;;3.00;0.83;;;;;;;;;;5040354;28;20589;-67
2022/01/31 12:17:11;;;;;;;6.60;1.20;;;;;;;;;;5046489;28;20196;-68
2022/01/31 12:22:28;;;;;;;3.80;0.80;;;;;;;;;;5046069;28;20751;-67
2022/01/31 12:24:54;;;;;;;2.80;0.63;;;;;;;;;;5041532;28;20192;-67
2022/01/31 12:27:27;;;;;;;4.40;0.30;;;;;;;;;;5047875;28;20185;-68
2022/01/31 12:29:56;;;;;;;4.70;0.67;;;;;;;;;;5046725;28;20395;-68
2022/01/31 12:32:32;;;;;;;8.90;0.93;;;;;;;;;;5047150;28;20189;-68
2022/01/31 12:35:06;;;;;;;4.53;0.90;;;;;;;;;;5044863;28;20185;-68
2022/01/31 12:37:40;;;;;;;4.80;0.80;;;;;;;;;;5045012;28;20185;-67
2022/01/31 12:40:12;;;;;;;3.83;0.50;;;;;;;;;;5043910;28;20208;-68
2022/01/31 12:45:30;;;;;;;3.23;0.37;;;;;;;;;;5041285;28;20224;-68
2022/01/31 12:48:22;;;;;;;2.53;0.27;;;;;;;;;;5039729;28;20181;-69
2022/01/31 12:50:53;;;;;;;3.20;0.60;;;;;;;;;;5042795;28;20658;-70
2022/01/31 12:53:27;;;;;;;6.97;0.87;;;;;;;;;;5051220;28;20533;-70
2022/01/31 12:56:03;;;;;;;6.87;1.33;;;;;;;;;;5043264;28;20205;-69
2022/01/31 12:58:33;;;;;;;8.13;0.97;;;;;;;;;;5045800;28;20317;-69
2022/01/31 13:01:11;;;;;;;6.73;1.30;;;;;;;;;;5046120;28;20276;-68
2022/01/31 13:03:39;;;;;;;8.20;1.57;;;;;;;;;;5043177;28;20189;-67
2022/01/31 13:06:23;;;;;;;5.77;1.13;;;;;;;;;;5041522;28;20682;-67
2022/01/31 13:08:49;;;;;;;6.53;1.27;;;;;;;;;;5045637;28;20182;-67
2022/01/31 13:11:15;;;;;;;6.87;1.10;;;;;;;;;;5053392;28;20239;-68
2022/01/31 13:13:40;;;;;;;5.73;0.90;;;;;;;;;;5047671;28;20178;-68
2022/01/31 13:16:08;;;;;;;8.33;1.00;;;;;;;;;;5059247;28;20605;-68
2022/01/31 13:18:34;;;;;;;4.77;1.07;;;;;;;;;;5043964;28;20197;-68
2022/01/31 13:21:03;;;;;;;7.87;1.63;;;;;;;;;;5052044;28;20211;-68
2022/01/31 13:23:31;;;;;;;5.30;1.03;;;;;;;;;;5046965;28;20213;-68
2022/01/31 13:26:00;;;;;;;9.60;1.60;;;;;;;;;;5054149;28;20185;-68
2022/01/31 13:28:25;;;;;;;8.00;1.30;;;;;;;;;;5041611;28;20181;-68
2022/01/31 13:30:51;;;;;;;5.50;1.20;;;;;;;;;;5042535;28;20442;-69
2022/01/31 13:33:17;;;;;;;11.07;1.67;;;;;;;;;;5044233;28;20201;-66
2022/01/31 13:35:43;;;;;;;11.23;1.80;;;;;;;;;;5044995;28;20185;-67
2022/01/31 13:38:11;;;;;;;8.43;1.37;;;;;;;;;;5045119;28;20712;-67
2022/01/31 13:40:44;;;;;;;16.43;1.93;;;;;;;;;;5053384;28;20185;-67
2022/01/31 13:43:17;;;;;;;15.40;3.30;;;;;;;;;;5045604;28;20196;-67
2022/01/31 13:48:32;;;;;;;13.80;2.17;;;;;;;;;;5046364;28;20280;-69
2022/01/31 13:51:00;;;;;;;16.20;2.23;;;;;;;;;;5055284;28;20259;-68
2022/01/31 13:53:37;;;;;;;15.37;2.27;;;;;;;;;;5049876;28;20536;-68
2022/01/31 13:56:08;;;;;;;13.70;2.40;;;;;;;;;;5049988;28;20227;-67
2022/01/31 13:58:36;;;;;;;12.50;1.90;;;;;;;;;;5052556;28;20229;-68
2022/01/31 14:01:04;;;;;;;21.47;2.73;;;;;;;;;;5044775;28;20578;-68
2022/01/31 14:03:39;;;;;;;10.87;1.80;;;;;;;;;;5042308;28;20200;-68
2022/01/31 14:06:09;;;;;;;16.80;2.53;;;;;;;;;;5038092;28;20212;-69
2022/01/31 14:08:39;;;;;;;17.67;1.93;;;;;;;;;;5040442;28;20204;-69
2022/01/31 14:11:17;;;;;;;13.77;1.83;;;;;;;;;;5042073;28;20186;-69
2022/01/31 14:13:48;;;;;;;15.27;2.27;;;;;;;;;;5045107;28;20511;-68
2022/01/31 14:16:19;;;;;;;9.33;1.40;;;;;;;;;;5043799;28;20176;-70
2022/01/31 14:18:49;;;;;;;13.00;1.87;;;;;;;;;;5046642;28;20959;-69
2022/01/31 14:21:16;;;;;;;11.50;2.20;;;;;;;;;;5041530;28;20557;-68
2022/01/31 14:23:44;;;;;;;7.07;1.37;;;;;;;;;;5043368;28;20274;-68
2022/01/31 14:26:12;;;;;;;8.33;1.57;;;;;;;;;;5035813;28;20177;-69
2022/01/31 14:28:44;;;;;;;12.80;1.43;;;;;;;;;;5030003;28;20201;-70
2022/01/31 14:31:11;;;;;;;9.50;1.30;;;;;;;;;;5033659;28;20303;-72
2022/01/31 14:33:47;;;;;;;7.63;1.23;;;;;;;;;;5039404;28;20263;-72
2022/01/31 14:36:15;;;;;;;7.93;0.90;;;;;;;;;;5046698;28;20181;-72
2022/01/31 14:38:58;;;;;;;6.90;1.43;;;;;;;;;;5041466;28;20566;-72
2022/01/31 14:41:38;;;;;;;5.73;0.93;;;;;;;;;;5041334;28;20218;-72
2022/01/31 14:47:17;;;;;;;8.37;1.23;;;;;;;;;;5047539;28;20209;-72
2022/01/31 14:49:44;;;;;;;10.87;1.37;;;;;;;;;;5047258;28;20190;-71
2022/01/31 14:52:10;;;;;;;9.63;1.50;;;;;;;;;;5039427;28;20192;-69
2022/01/31 14:54:40;;;;;;;10.23;1.83;;;;;;;;;;5039847;28;20189;-69
2022/01/31 14:57:07;;;;;;;17.20;2.33;;;;;;;;;;5044737;28;20196;-70
2022/01/31 14:59:33;;;;;;;18.37;2.73;;;;;;;;;;5020326;28;20632;-69
2022/01/31 15:01:59;;;;;;;20.83;2.97;;;;;;;;;;5042291;28;20200;-69
2022/01/31 15:04:27;;;;;;;21.27;2.63;;;;;;;;;;5041117;28;20508;-68
2022/01/31 15:06:53;;;;;;;25.97;2.97;;;;;;;;;;5040444;28;20212;-68
2022/01/31 15:09:18;;;;;;;27.60;2.87;;;;;;;;;;5053535;28;20629;-69
2022/01/31 15:11:45;;;;;;;26.67;3.10;;;;;;;;;;5042707;28;20197;-69
2022/01/31 15:14:11;;;;;;;20.00;3.50;;;;;;;;;;5037312;28;20832;-69